KMCN/MCN METAR and TAF weather

Enter ICAO airport designator
Station Type Date Time Source
KMCN METAR 2021/02/27 08:53 UTC NOAA

KMCN 270853Z AUTO 04005KT 10SM CLR 09/08 A3015 RMK AO2 SLP207 T00940078 55005


Station Type Date Time Source
KMCN Decoded METAR 2021/02/27 08:53 UTC NOAA

MIDDLE GEORGIA REGIONAL AIRPORT , GA, United States (KMCN) 32-41N 83-39W 109M
Feb 27, 2021 - 03:53 AM EST / 2021.02.27 0853 UTC
Wind: from the NE (040 degrees) at 6 MPH (5 KT):0
Visibility: 10 mile(s):0
Sky conditions: clear
Temperature: 48.9 F (9.4 C)
Dew Point: 46.0 F (7.8 C)
Relative Humidity: 89%
Pressure (altimeter): 30.15 in. Hg (1020 hPa)
Pressure tendency: 0.01 inches (0.5 hPa) lower than three hours ago
ob: KMCN 270853Z AUTO 04005KT 10SM CLR 09/08 A3015 RMK AO2 SLP207 T00940078 55005
cycle: 9

Station Type Date Time Source
KMCN TAF 2021/02/27 06:39 UTC NOAA

TAF KMCN 270536Z 2706/2806 14004KT P6SM BKN025 OVC040
FM270800 00000KT 5SM BR BKN025
FM271300 18005KT P6SM BKN025 OVC060
FM271600 20006KT P6SM BKN040
FM272000 22010KT P6SM SCT150
FM280000 19005KT P6SM BKN250

Example: see airport list